createdAt,value
2018-07-05T00:01:07.580Z,41.72
2018-07-05T00:02:17.717Z,41.33
2018-07-05T00:03:27.530Z,42.39
2018-07-05T00:04:37.341Z,42.49
2018-07-05T00:05:47.411Z,42.68
2018-07-05T00:06:57.508Z,43.35
2018-07-05T00:08:07.095Z,43.43
2018-07-05T00:09:17.184Z,43.81
2018-07-05T00:10:27.265Z,43.62
2018-07-05T00:11:37.058Z,44.38
2018-07-05T00:12:47.139Z,44.29
2018-07-05T00:13:57.260Z,44.96
2018-07-05T00:15:07.073Z,45.15
2018-07-05T00:16:16.918Z,45.06
2018-07-05T00:17:26.973Z,45.54
2018-07-05T00:18:37.026Z,45.64
2018-07-05T00:19:47.147Z,46.5
2018-07-05T00:20:56.943Z,46.59
2018-07-05T00:22:07.009Z,47.25
2018-07-05T00:23:16.812Z,47.34
2018-07-05T00:24:26.896Z,47.92
2018-07-05T00:25:37.013Z,48.11
2018-07-05T00:26:47.098Z,48.02
2018-07-05T00:27:57.176Z,48.21
2018-07-05T00:29:06.974Z,48.02
2018-07-05T00:30:17.051Z,48.21
2018-07-05T00:31:26.611Z,48.69
2018-07-05T00:32:36.679Z,48.49
2018-07-05T00:33:46.754Z,49.07
2018-07-05T00:34:56.559Z,48.49
2018-07-05T00:36:06.372Z,48.66
2018-07-05T00:37:16.226Z,48.59
2018-07-05T00:38:26.308Z,48.76
2018-07-05T00:39:36.393Z,48.79
2018-07-05T00:40:46.201Z,48.38
2018-07-05T00:41:56.250Z,48.95
2018-07-05T00:43:06.123Z,49.43
2018-07-05T00:44:15.915Z,49.33
2018-07-05T00:45:25.710Z,49.62
2018-07-05T00:46:35.780Z,50.01
2018-07-05T00:47:45.582Z,49.91
2018-07-05T00:48:55.699Z,49.91
2018-07-05T00:50:05.099Z,50.01
2018-07-05T00:51:14.887Z,49.91
2018-07-05T00:52:24.680Z,49.62
2018-07-05T00:53:34.490Z,50.29
2018-07-05T00:54:43.796Z,50.29
2018-07-05T00:55:53.871Z,50.58
2018-07-05T00:57:03.675Z,50.78
2018-07-05T00:58:13.742Z,50.46
2018-07-05T00:59:23.543Z,51.04
2018-07-05T01:00:33.381Z,51.14
2018-07-05T01:01:43.192Z,51.23
2018-07-05T01:02:52.995Z,51.42
2018-07-05T01:04:03.084Z,52.09
2018-07-05T01:05:12.879Z,52.19
2018-07-05T01:06:22.766Z,51.81
2018-07-05T01:07:32.824Z,52.48
2018-07-05T01:08:42.630Z,52.57
2018-07-05T01:09:52.448Z,52.38
2018-07-05T01:11:02.251Z,52.67
2018-07-05T01:12:12.364Z,52.74
2018-07-05T01:13:22.437Z,52.64
2018-07-05T01:14:32.250Z,53.7
2018-07-05T01:15:42.039Z,53.53
2018-07-05T01:16:51.861Z,53.79
2018-07-05T01:18:01.973Z,53.89
2018-07-05T01:19:12.045Z,54.66
2018-07-05T01:20:22.120Z,54.37
2018-07-05T01:21:31.647Z,55.23
2018-07-05T01:22:41.441Z,55.71
2018-07-05T01:23:51.578Z,55.13
2018-07-05T01:25:01.629Z,55.11
2018-07-05T01:26:11.161Z,55.49
2018-07-05T01:27:21.220Z,55.62
2018-07-05T01:28:31.010Z,55.49
2018-07-05T01:29:40.853Z,55.3
2018-07-05T01:30:50.645Z,55.97
2018-07-05T01:32:00.730Z,55.78
2018-07-05T01:33:10.522Z,55.49
2018-07-05T01:34:20.338Z,55.3
2018-07-05T01:35:30.467Z,55.21
2018-07-05T01:36:40.543Z,55.97
2018-07-05T01:37:50.606Z,55.58
2018-07-05T01:39:00.680Z,55.97
2018-07-05T01:40:10.485Z,55.68
2018-07-05T01:41:20.611Z,56.54
2018-07-05T01:42:30.415Z,55.87
2018-07-05T01:43:40.218Z,55.58
2018-07-05T01:44:49.745Z,55.58
2018-07-05T01:45:59.808Z,55.4
2018-07-05T01:47:09.937Z,56.54
2018-07-05T01:48:19.727Z,56.45
2018-07-05T01:49:29.820Z,57.41
2018-07-05T01:50:39.611Z,56.32
2018-07-05T01:51:49.412Z,55.94
2018-07-05T01:52:59.267Z,56.52
2018-07-05T01:54:08.800Z,56.32
2018-07-05T01:55:18.861Z,56.32
2018-07-05T01:56:28.660Z,57.28
2018-07-05T01:57:38.731Z,56.61
2018-07-05T01:58:48.843Z,57.38
2018-07-05T01:59:58.925Z,58.15
2018-07-05T02:01:08.733Z,57.19
2018-07-05T02:02:18.805Z,57.48
2018-07-05T02:03:28.894Z,57.28
2018-07-05T02:04:38.728Z,57.48
2018-07-05T02:05:48.817Z,57.67
2018-07-05T02:06:58.898Z,57.76
2018-07-05T02:08:08.695Z,57.28
2018-07-05T02:09:18.504Z,57.76
2018-07-05T02:10:28.643Z,57.95
2018-07-05T02:11:38.712Z,57.86
2018-07-05T02:12:48.508Z,58.44
2018-07-05T02:13:58.577Z,57.86
2018-07-05T02:15:08.374Z,57.95
2018-07-05T02:16:18.213Z,58.62
2018-07-05T02:17:28.311Z,58.62
2018-07-05T02:18:38.104Z,58.91
2018-07-05T02:19:48.189Z,58.34
2018-07-05T02:20:58.263Z,58.53
2018-07-05T02:22:08.393Z,59.11
2018-07-05T02:23:18.461Z,58.44
2018-07-05T02:24:28.256Z,58.91
2018-07-05T02:25:38.332Z,58.91
2018-07-05T02:26:48.144Z,58.53
2018-07-05T02:27:57.991Z,58.81
2018-07-05T02:29:08.067Z,59.17
2018-07-05T02:30:17.881Z,59.55
2018-07-05T02:31:27.951Z,59.17
2018-07-05T02:32:38.045Z,58.4
2018-07-05T02:33:47.899Z,58.91
2018-07-05T02:34:57.968Z,59.2
2018-07-05T02:36:07.763Z,59.45
2018-07-05T02:37:17.564Z,59.75
2018-07-05T02:38:27.636Z,59.65
2018-07-05T02:39:37.754Z,59.84
2018-07-05T02:40:47.558Z,59.65
2018-07-05T02:41:57.620Z,59.08
2018-07-05T02:43:07.690Z,59.75
2018-07-05T02:44:17.477Z,60.22
2018-07-05T02:45:27.337Z,59.65
2018-07-05T02:46:37.422Z,59.27
2018-07-05T02:47:47.486Z,59.45
2018-07-05T02:48:57.569Z,59.45
2018-07-05T02:50:07.391Z,59.17
2018-07-05T02:51:17.493Z,59.27
2018-07-05T02:52:27.040Z,59.65
2018-07-05T02:53:36.881Z,59.45
2018-07-05T02:54:46.967Z,59.36
2018-07-05T02:55:56.769Z,59.36
2018-07-05T02:57:06.635Z,59.65
2018-07-05T02:58:16.685Z,59.65
2018-07-05T02:59:26.493Z,58.98
2018-07-05T03:03:30.895Z,59.36
2018-07-05T03:04:40.959Z,59.58
2018-07-05T03:05:51.027Z,59.36
2018-07-05T03:07:01.116Z,59.17
2018-07-05T03:08:10.974Z,59.2
2018-07-05T03:09:20.817Z,59.08
2018-07-05T03:10:30.627Z,59.2
2018-07-05T03:11:40.442Z,59.17
2018-07-05T03:12:49.981Z,59.48
2018-07-05T03:14:00.066Z,59.58
2018-07-05T03:15:09.928Z,59.68
2018-07-05T03:16:20.033Z,59.01
2018-07-05T03:17:29.848Z,59.45
2018-07-05T03:18:39.640Z,59.27
2018-07-05T03:19:49.463Z,59.65
2018-07-05T03:20:59.591Z,59.3
2018-07-05T03:22:09.137Z,59.27
2018-07-05T03:23:19.232Z,59.11
2018-07-05T03:24:29.038Z,59.68
2018-07-05T03:25:38.846Z,60.35
2018-07-05T03:26:48.963Z,60.16
2018-07-05T03:27:58.764Z,60.16
2018-07-05T03:29:08.575Z,60.16
2018-07-05T03:30:18.652Z,60.16
2018-07-05T03:31:28.763Z,59.77
2018-07-05T03:32:38.878Z,60.16
2018-07-05T03:33:48.946Z,59.3
2018-07-05T03:34:58.755Z,59.01
2018-07-05T03:36:08.828Z,59.58
2018-07-05T03:37:18.899Z,59.48
2018-07-05T03:38:29.020Z,59.01
2018-07-05T03:39:39.090Z,59.39
2018-07-05T03:40:49.152Z,59.58
2018-07-05T03:41:59.244Z,59.68
2018-07-05T03:43:09.360Z,59.39
2018-07-05T03:44:19.476Z,59.2
2018-07-05T03:45:29.584Z,59.11
2018-07-05T03:46:39.653Z,59.48
2018-07-05T03:47:49.715Z,59.11
2018-07-05T03:48:59.236Z,59.2
2018-07-05T03:50:08.812Z,59.48
2018-07-05T03:51:18.896Z,59.2
2018-07-05T03:52:28.434Z,58.24
2018-07-05T03:53:38.518Z,58.15
2018-07-05T03:54:48.591Z,58.53
2018-07-05T03:55:58.440Z,58.81
2018-07-05T03:57:07.428Z,59.2
2018-07-05T03:58:17.231Z,58.44
2018-07-05T03:59:27.030Z,58.44
2018-07-05T04:00:37.092Z,59.11
2018-07-05T04:01:46.938Z,59.2
2018-07-05T04:02:56.750Z,58.44
2018-07-05T04:04:06.827Z,58.72
2018-07-05T04:05:16.894Z,59.3
2018-07-05T04:06:26.955Z,58.24
2018-07-05T04:07:37.076Z,58.56
2018-07-05T04:08:47.160Z,58.62
2018-07-05T04:09:56.968Z,58.65
2018-07-05T04:11:06.278Z,58.94
2018-07-05T04:12:16.080Z,58.17
2018-07-05T04:13:26.199Z,58.08
2018-07-05T04:14:36.008Z,58.17
2018-07-05T04:15:45.842Z,58.46
2018-07-05T04:16:56.179Z,58.08
2018-07-05T04:18:05.448Z,59.04
2018-07-05T04:19:15.304Z,58.65
2018-07-05T04:20:25.117Z,58.17
2018-07-05T04:21:34.655Z,58.08
2018-07-05T04:22:44.453Z,58.46
2018-07-05T04:23:54.506Z,59.04
2018-07-05T04:25:04.323Z,58.17
2018-07-05T04:26:14.230Z,57.98
2018-07-05T04:27:24.052Z,57.98
2018-07-05T04:28:34.125Z,57.89
2018-07-05T04:29:43.937Z,57.5
2018-07-05T04:30:53.775Z,57.5
2018-07-05T04:32:03.296Z,58.11
2018-07-05T04:33:12.835Z,57.21
2018-07-05T04:34:22.633Z,56.83
2018-07-05T04:35:32.445Z,56.74
2018-07-05T04:36:42.557Z,56.57
2018-07-05T04:37:52.623Z,56.76
2018-07-05T04:39:02.415Z,56.67
2018-07-05T04:40:12.225Z,56.48
2018-07-05T04:41:22.298Z,56.57
2018-07-05T04:42:32.257Z,56.29
2018-07-05T04:43:42.569Z,56.57
2018-07-05T04:44:52.628Z,56.09
2018-07-05T04:46:02.169Z,55.42
2018-07-05T04:47:11.681Z,55.23
2018-07-05T04:48:21.519Z,55.62
2018-07-05T04:49:31.584Z,55.62
2018-07-05T04:50:41.404Z,55.52
2018-07-05T04:51:50.926Z,55.42
2018-07-05T04:53:00.983Z,55.13
2018-07-05T04:54:10.852Z,55.26
2018-07-05T04:55:20.676Z,55.35
2018-07-05T04:56:30.323Z,54.97
2018-07-05T04:57:40.140Z,54.49
2018-07-05T04:58:49.936Z,54.39
2018-07-05T05:00:00.061Z,54.49
2018-07-05T05:01:10.141Z,54.49
2018-07-05T05:02:20.271Z,54.49
2018-07-05T05:03:30.571Z,55.16
2018-07-05T05:04:40.100Z,55.35
2018-07-05T05:05:50.214Z,54.3
2018-07-05T05:07:00.290Z,54.88
2018-07-05T05:08:10.080Z,54.49
2018-07-05T05:09:19.881Z,54.68
2018-07-05T05:10:29.419Z,54.68
2018-07-05T05:11:38.999Z,54.78
2018-07-05T05:12:49.061Z,54.68
2018-07-05T05:13:59.136Z,54.68
2018-07-05T05:15:09.223Z,54.49
2018-07-05T05:16:19.023Z,55.26
2018-07-05T05:17:29.144Z,54.58
2018-07-05T05:18:39.221Z,54.3
2018-07-05T05:19:49.304Z,53.91
2018-07-05T05:20:59.377Z,54.42
2018-07-05T05:22:09.185Z,54.42
2018-07-05T05:23:19.034Z,53.94
2018-07-05T05:24:28.563Z,53.66
2018-07-05T05:25:38.378Z,53.66
2018-07-05T05:26:48.183Z,53.75
2018-07-05T05:27:58.258Z,53.46
2018-07-05T05:29:08.106Z,52.98
2018-07-05T05:30:18.176Z,52.98
2018-07-05T05:31:28.248Z,52.6
2018-07-05T05:32:38.336Z,52.6
2018-07-05T05:33:48.129Z,52.6
2018-07-05T05:34:57.963Z,52.22
2018-07-05T05:36:06.948Z,52.5
2018-07-05T05:37:17.035Z,52.6
2018-07-05T05:38:26.572Z,52.6
2018-07-05T05:39:36.096Z,52.22
2018-07-05T05:40:45.684Z,52.81
2018-07-05T05:41:55.762Z,52.69
2018-07-05T05:43:05.548Z,52.34
2018-07-05T05:44:15.362Z,52.02
2018-07-05T05:45:25.447Z,52.14
2018-07-05T05:46:35.574Z,51.86
2018-07-05T05:47:45.184Z,52.4
2018-07-05T05:48:55.379Z,52.4
2018-07-05T05:50:05.172Z,52.91
2018-07-05T05:51:14.698Z,51.93
2018-07-05T05:52:24.561Z,52.53
2018-07-05T05:53:34.368Z,52.34
2018-07-05T05:54:44.437Z,51.86
2018-07-05T05:55:54.513Z,52.24
2018-07-05T05:57:04.331Z,52.53
2018-07-05T05:58:13.648Z,52.14
2018-07-05T05:59:23.467Z,51.95
2018-07-05T06:00:33.295Z,52.05
2018-07-05T06:01:43.431Z,52.05
2018-07-05T06:02:53.303Z,51.37
2018-07-05T06:04:03.412Z,51.18
2018-07-05T06:05:13.510Z,52.24
2018-07-05T06:06:23.580Z,52.24
2018-07-05T06:07:33.384Z,52.05
2018-07-05T06:08:43.475Z,52.14
2018-07-05T06:09:53.604Z,51.47
2018-07-05T06:11:03.398Z,51.11
2018-07-05T06:12:13.194Z,51.5
2018-07-05T06:13:23.264Z,51.95
2018-07-05T06:14:32.543Z,52.05
2018-07-05T06:15:42.379Z,51.86
2018-07-05T06:16:51.990Z,51.95
2018-07-05T06:18:02.071Z,51.02
2018-07-05T06:19:11.883Z,50.82
2018-07-05T06:20:21.947Z,50.73
2018-07-05T06:21:32.068Z,50.73
2018-07-05T06:22:41.867Z,50.73
2018-07-05T06:23:51.662Z,52.08
2018-07-05T06:25:01.748Z,51.5
2018-07-05T06:26:11.274Z,51.31
2018-07-05T06:27:21.127Z,51.31
2018-07-05T06:28:30.935Z,50.73
2018-07-05T06:29:40.724Z,50.73
2018-07-05T06:30:50.250Z,50.85
2018-07-05T06:32:00.323Z,50.66
2018-07-05T06:33:10.191Z,51.33
2018-07-05T06:34:20.268Z,51.33
2018-07-05T06:35:30.335Z,50.85
2018-07-05T06:36:40.410Z,51.23
2018-07-05T06:37:50.216Z,50.56
2018-07-05T06:39:00.413Z,50.66
2018-07-05T06:40:10.494Z,49.99
2018-07-05T06:41:20.491Z,50.08
2018-07-05T06:42:30.562Z,49.89
2018-07-05T06:43:40.364Z,50.56
2018-07-05T06:44:50.205Z,50.85
2018-07-05T06:46:00.301Z,50.66
2018-07-05T06:47:09.555Z,49.89
2018-07-05T06:48:19.635Z,49.69
2018-07-05T06:49:30.068Z,49.51
2018-07-05T06:50:40.191Z,49.89
2018-07-05T06:51:50.031Z,49.82
2018-07-05T06:53:00.133Z,49.51
2018-07-05T06:54:10.277Z,49.69
2018-07-05T06:55:20.344Z,50.01
2018-07-05T06:56:30.193Z,49.24
2018-07-05T06:57:40.268Z,49.05
2018-07-05T06:58:50.354Z,49.15
2018-07-05T07:00:00.427Z,48.85
2018-07-05T07:01:09.967Z,48.85
2018-07-05T07:02:19.835Z,48.47
2018-07-05T07:03:29.636Z,48.3
2018-07-05T07:04:39.708Z,48.49
2018-07-05T07:05:49.779Z,48.11
2018-07-05T07:06:59.052Z,47.63
2018-07-05T07:08:09.110Z,48.21
2018-07-05T07:09:19.003Z,48.21
2018-07-05T07:10:28.803Z,48.02
2018-07-05T07:11:38.603Z,47.44
2018-07-05T07:12:48.684Z,48.79
2018-07-05T07:13:58.259Z,48.4
2018-07-05T07:15:08.064Z,48.11
2018-07-05T07:16:18.145Z,48.11
2018-07-05T07:17:28.237Z,48.23
2018-07-05T07:18:38.314Z,47.36
2018-07-05T07:19:48.431Z,46.98
2018-07-05T07:20:58.498Z,46.98
2018-07-05T07:22:08.590Z,47.17
2018-07-05T07:23:18.378Z,46.98
2018-07-05T07:24:27.639Z,47.36
2018-07-05T07:25:37.747Z,46.78
2018-07-05T07:26:47.836Z,46.98
2018-07-05T07:27:57.634Z,47.17
2018-07-05T07:29:07.474Z,46.88
2018-07-05T07:30:17.552Z,46.62
2018-07-05T07:31:27.063Z,45.83
2018-07-05T07:32:37.551Z,46.33
2018-07-05T07:33:47.637Z,45.84
2018-07-05T07:34:57.745Z,46.62
2018-07-05T07:36:07.293Z,46.71
2018-07-05T07:37:17.159Z,46.91
2018-07-05T07:38:27.446Z,46.71
2018-07-05T07:39:37.531Z,46.71
2018-07-05T07:40:47.620Z,47.39
2018-07-05T07:41:57.426Z,45.65
2018-07-05T07:43:07.013Z,45.46
2018-07-05T07:44:16.829Z,46.71
2018-07-05T07:45:27.038Z,45.46
2018-07-05T07:46:37.645Z,45.2
2018-07-05T07:47:46.907Z,45.39
2018-07-05T07:48:56.742Z,44.62
2018-07-05T07:50:06.259Z,44.42
2018-07-05T07:51:16.110Z,44.71
2018-07-05T07:52:26.068Z,44.62
2018-07-05T07:53:35.614Z,44.32
2018-07-05T07:54:45.182Z,44.32
2018-07-05T07:55:55.241Z,44.9
2018-07-05T07:57:05.317Z,44.52
2018-07-05T07:58:15.208Z,44.62
2018-07-05T07:59:25.632Z,44.42
2018-07-05T08:00:35.214Z,44.42
2018-07-05T08:01:45.020Z,44.23
2018-07-05T08:02:54.814Z,44.62
2018-07-05T08:04:04.913Z,44.25
2018-07-05T08:05:14.445Z,43.87
2018-07-05T08:06:24.307Z,44.73
2018-07-05T08:07:34.112Z,44.54
2018-07-05T08:08:44.188Z,44.54
2018-07-05T08:09:54.003Z,44.35
2018-07-05T08:11:03.832Z,44.54
2018-07-05T08:12:13.958Z,44.64
2018-07-05T08:13:23.540Z,44.27
2018-07-05T08:14:33.064Z,44.73
2018-07-05T08:15:43.136Z,43.89
2018-07-05T08:16:52.938Z,43.7
2018-07-05T08:18:02.806Z,43.7
2018-07-05T08:19:12.359Z,43.89
2018-07-05T08:20:22.552Z,44.18
2018-07-05T08:21:32.799Z,43.79
2018-07-05T08:22:42.613Z,43.79
2018-07-05T08:23:52.759Z,43.98
2018-07-05T08:25:02.820Z,44.46
2018-07-05T08:26:12.643Z,44.08
2018-07-05T08:27:22.482Z,43.6
2018-07-05T08:28:32.296Z,43.6
2018-07-05T08:29:42.446Z,44.18
2018-07-05T08:30:52.499Z,43.5
2018-07-05T08:32:02.566Z,43.6
2018-07-05T08:33:12.100Z,44.66
2018-07-05T08:34:21.917Z,44.59
2018-07-05T08:35:32.045Z,44.59
2018-07-05T08:36:42.136Z,43.91
2018-07-05T08:37:52.301Z,44.01
2018-07-05T08:39:02.201Z,43.81
2018-07-05T08:40:12.273Z,43.24
2018-07-05T08:41:22.390Z,43.52
2018-07-05T08:42:32.198Z,43.52
2018-07-05T08:43:42.277Z,43.91
2018-07-05T08:44:52.128Z,43.52
2018-07-05T08:46:02.450Z,43.43
2018-07-05T08:47:12.298Z,43.33
2018-07-05T08:48:22.387Z,42.94
2018-07-05T08:49:32.177Z,43.14
2018-07-05T08:50:41.988Z,43.81
2018-07-05T08:51:51.776Z,44.2
2018-07-05T08:53:01.893Z,43.43
2018-07-05T08:54:11.691Z,42.94
2018-07-05T08:55:21.765Z,43.43
2018-07-05T08:56:31.584Z,43.52
2018-07-05T08:57:41.667Z,43.43
2018-07-05T08:58:51.779Z,43.04
2018-07-05T09:00:02.832Z,43.24
2018-07-05T09:01:12.638Z,43.04
2018-07-05T09:02:22.737Z,42.36
2018-07-05T09:03:32.826Z,42.75
2018-07-05T09:04:42.939Z,42.68
2018-07-05T09:05:52.998Z,42.87
2018-07-05T09:07:03.084Z,43.64
2018-07-05T09:08:44.984Z,42.48
2018-07-05T09:09:55.115Z,42.19
2018-07-05T09:11:05.216Z,42.48
2018-07-05T09:12:15.020Z,42.39
2018-07-05T09:13:25.098Z,42.48
2018-07-05T09:14:35.172Z,42.39
2018-07-05T09:15:44.757Z,42.39
2018-07-05T09:16:54.565Z,42.41
2018-07-05T09:18:04.637Z,42.68
2018-07-05T09:19:14.752Z,42.39
2018-07-05T09:20:24.285Z,42.02
2018-07-05T09:21:34.429Z,41.44
2018-07-05T09:22:44.496Z,41.93
2018-07-05T09:23:54.023Z,42.41
2018-07-05T09:25:03.817Z,41.83
2018-07-05T09:26:13.914Z,42.04
2018-07-05T09:27:23.514Z,41.46
2018-07-05T09:28:33.320Z,41.75
2018-07-05T09:29:43.381Z,41.56
2018-07-05T09:30:52.927Z,41.17
2018-07-05T09:32:02.467Z,40.69
2018-07-05T09:33:12.346Z,40.88
2018-07-05T09:34:22.420Z,40.88
2018-07-05T09:35:32.235Z,40.78
2018-07-05T09:36:42.301Z,40.78
2018-07-05T09:37:52.388Z,40.78
2018-07-05T09:39:01.973Z,40.88
2018-07-05T09:40:11.508Z,40.9
2018-07-05T09:41:21.324Z,40.03
2018-07-05T09:42:30.877Z,40.03
2018-07-05T09:43:40.957Z,40.23
2018-07-05T09:44:51.079Z,40.13
2018-07-05T09:46:00.612Z,40.81
2018-07-05T09:47:10.428Z,40.03
2018-07-05T09:48:20.508Z,40.03
2018-07-05T09:49:30.299Z,41
2018-07-05T09:50:40.151Z,40.83
2018-07-05T09:51:49.955Z,40.15
2018-07-05T09:52:59.764Z,40.83
2018-07-05T09:54:09.569Z,40.34
2018-07-05T09:55:19.365Z,40.83
2018-07-05T09:56:29.231Z,39.76
2018-07-05T09:57:39.298Z,39.95
2018-07-05T09:58:49.386Z,39.67
2018-07-05T09:59:59.197Z,39.76
2018-07-05T10:01:09.011Z,39.57
2018-07-05T10:02:19.147Z,40.83
2018-07-05T10:03:29.071Z,39.28
2018-07-05T10:04:39.595Z,39.67
2018-07-05T10:05:49.407Z,40.15
2018-07-05T10:06:59.478Z,39.86
2018-07-05T10:08:09.344Z,39.67
2018-07-05T10:09:18.876Z,39.67
2018-07-05T10:10:28.521Z,39.78
2018-07-05T10:11:38.338Z,39.01
2018-07-05T10:12:48.149Z,39.11
2018-07-05T10:13:57.713Z,39.11
2018-07-05T10:15:07.322Z,39.01
2018-07-05T10:16:17.399Z,39.49
2018-07-05T10:17:27.481Z,39.69
2018-07-05T10:18:37.285Z,39.01
2018-07-05T10:19:47.143Z,39.49
2018-07-05T10:20:57.238Z,38.45
2018-07-05T10:22:07.048Z,38.54
2018-07-05T10:23:16.593Z,38.35
2018-07-05T10:24:26.404Z,38.45
2018-07-05T10:25:36.005Z,38.73
2018-07-05T10:26:45.899Z,38.93
2018-07-05T10:27:55.781Z,38.93
2018-07-05T10:29:05.590Z,38.83
2018-07-05T10:30:15.692Z,37.87
2018-07-05T10:31:25.817Z,38.73
2018-07-05T10:32:35.361Z,38.73
2018-07-05T10:33:45.455Z,38.54
2018-07-05T10:34:54.997Z,38.25
2018-07-05T10:36:04.534Z,38.54
2018-07-05T10:37:14.115Z,38.45
2018-07-05T10:38:23.931Z,38.45
2018-07-05T10:39:33.763Z,38.45
2018-07-05T10:40:44.031Z,38.54
2018-07-05T10:41:53.835Z,38.15
2018-07-05T10:43:03.967Z,38.54
2018-07-05T10:44:14.055Z,38.54
2018-07-05T10:45:23.863Z,38.35
2018-07-05T10:46:33.396Z,38.73
2018-07-05T10:47:43.181Z,38.35
2018-07-05T10:48:53.042Z,38.15
2018-07-05T10:50:03.109Z,38.06
2018-07-05T10:51:12.915Z,37.88
2018-07-05T10:52:22.701Z,38.56
2018-07-05T10:53:32.759Z,38.37
2018-07-05T10:54:42.346Z,37.01
2018-07-05T10:55:52.448Z,37.98
2018-07-05T10:57:02.271Z,38.17
2018-07-05T10:58:11.800Z,38.27
2018-07-05T10:59:21.881Z,37.98
2018-07-05T11:00:31.737Z,38.66
2018-07-05T11:01:41.821Z,38.85
2018-07-05T11:02:51.367Z,37.81
2018-07-05T11:04:01.501Z,37.61
2018-07-05T11:05:11.026Z,36.74
2018-07-05T11:06:20.329Z,36.74
2018-07-05T11:07:30.239Z,36.64
2018-07-05T11:08:40.049Z,36.64
2018-07-05T11:09:50.141Z,37.51
2018-07-05T11:10:59.939Z,37.13
2018-07-05T11:12:09.802Z,37.23
2018-07-05T11:13:19.874Z,37.23
2018-07-05T11:14:29.484Z,37.41
2018-07-05T11:15:40.189Z,36.93
2018-07-05T11:16:50.019Z,38.02
2018-07-05T11:18:00.156Z,36.36
2018-07-05T11:19:09.423Z,36.46
2018-07-05T11:20:19.498Z,37.15
2018-07-05T11:21:29.035Z,36.36
2018-07-05T11:22:38.568Z,36.46
2018-07-05T11:23:48.144Z,36.85
2018-07-05T11:24:57.946Z,37.26
2018-07-05T11:26:07.479Z,37.07
2018-07-05T11:27:17.304Z,36.48
2018-07-05T11:28:27.125Z,36.1
2018-07-05T11:29:36.985Z,35.9
2018-07-05T11:30:46.805Z,35.33
2018-07-05T11:31:56.635Z,35.61
2018-07-05T11:33:05.904Z,36
2018-07-05T11:34:15.693Z,36
2018-07-05T11:35:25.826Z,36
2018-07-05T11:36:35.901Z,36.02
2018-07-05T11:37:45.686Z,35.82
2018-07-05T11:38:55.748Z,35.45
2018-07-05T11:40:05.561Z,34.59
2018-07-05T11:41:15.688Z,33.34
2018-07-05T11:42:25.894Z,33.44
2018-07-05T11:43:35.924Z,32.02
2018-07-05T11:44:45.735Z,32.32
2018-07-05T11:45:55.822Z,30.88
2018-07-05T11:47:06.002Z,30.71
2018-07-05T11:48:16.105Z,30.05
2018-07-05T11:49:26.210Z,29.08
2018-07-05T11:50:36.304Z,28.52
2018-07-05T11:51:46.135Z,29.5
2018-07-05T11:52:55.995Z,27.76
2018-07-05T11:54:06.077Z,28.28
2018-07-05T11:55:15.887Z,27.9
2018-07-05T11:56:25.958Z,26.93
2018-07-05T11:57:36.033Z,25.68
2018-07-05T11:58:46.069Z,25.7
2018-07-05T11:59:55.917Z,25.12
2018-07-05T12:01:05.726Z,23.85
2018-07-05T12:02:15.285Z,23.47
2018-07-05T12:03:25.376Z,23.3
2018-07-05T12:04:35.234Z,23.21
2018-07-05T12:05:45.052Z,22.53
2018-07-05T12:06:54.885Z,22.63
2018-07-05T12:08:04.427Z,21.95
2018-07-05T12:09:14.251Z,21.97
2018-07-05T12:10:24.369Z,20.51
2018-07-05T12:11:34.468Z,20.32
2018-07-05T12:12:44.555Z,20.32
2018-07-05T12:13:54.366Z,20.51
2018-07-05T12:15:04.460Z,20.22
2018-07-05T12:16:13.784Z,19.82
2018-07-05T12:17:23.888Z,19.54
2018-07-05T12:18:33.642Z,19.84
2018-07-05T12:19:43.738Z,18.46
2018-07-05T12:20:53.829Z,18.66
2018-07-05T12:22:03.697Z,18.77
2018-07-05T12:23:13.800Z,18.67
2018-07-05T12:24:23.753Z,19.06
2018-07-05T12:25:33.270Z,18.37
2018-07-05T12:26:43.093Z,18.56
2018-07-05T12:27:52.949Z,18.77
2018-07-05T12:29:03.066Z,17.79
2018-07-05T12:30:13.050Z,18.1
2018-07-05T12:31:23.158Z,17.59
2018-07-05T12:32:32.699Z,17.5
2018-07-05T12:33:42.943Z,17.5
2018-07-05T12:34:52.510Z,17.3
2018-07-05T12:36:02.615Z,17.59
2018-07-05T12:37:12.449Z,17.69
2018-07-05T12:38:22.523Z,16.99
2018-07-05T12:39:32.531Z,17.58
2018-07-05T12:40:42.622Z,17.98
2018-07-05T12:41:52.451Z,17.99
2018-07-05T12:43:02.549Z,17.99
2018-07-05T12:44:12.092Z,17.8
2018-07-05T12:45:21.976Z,17.41
2018-07-05T12:46:31.518Z,17.31
2018-07-05T12:47:41.062Z,17.22
2018-07-05T12:48:50.890Z,17.03
2018-07-05T12:50:00.685Z,17.24
2018-07-05T12:51:10.829Z,16.65
2018-07-05T12:52:20.651Z,16.55
2018-07-05T12:53:30.488Z,15.48
2018-07-05T12:54:40.576Z,15.67
2018-07-05T12:55:50.686Z,15.48
2018-07-05T12:57:00.552Z,16.07
2018-07-05T12:58:10.367Z,16.07
2018-07-05T12:59:20.229Z,15.67
2018-07-05T13:00:29.514Z,14.69
2018-07-05T13:01:39.337Z,14.98
2018-07-05T13:02:49.497Z,15.68
2018-07-05T13:03:59.751Z,14.98
2018-07-05T13:05:09.671Z,15.08
2018-07-05T13:06:19.750Z,14.88
2018-07-05T13:07:29.856Z,15.47
2018-07-05T13:08:39.999Z,16.06
2018-07-05T13:09:50.098Z,14.79
2018-07-05T13:11:00.184Z,14.69
2018-07-05T13:12:09.990Z,14.88
2018-07-05T13:13:20.090Z,14.98
2018-07-05T13:14:30.234Z,15.48
2018-07-05T13:15:40.051Z,14.69
2018-07-05T13:16:50.143Z,15.08
2018-07-05T13:18:00.224Z,14.39
2018-07-05T13:19:09.814Z,14.39
2018-07-05T13:20:19.940Z,14.78
2018-07-05T13:21:29.763Z,15.18
2018-07-05T13:22:39.862Z,14.59
2018-07-05T13:23:49.961Z,14
2018-07-05T13:24:59.527Z,14.49
2018-07-05T13:26:09.396Z,14.69
2018-07-05T13:27:19.477Z,14.99
2018-07-05T13:28:29.303Z,15.58
2018-07-05T13:29:39.137Z,15.18
2018-07-05T13:30:49.221Z,15.08
2018-07-05T13:31:58.019Z,14.98
2018-07-05T13:33:07.903Z,15.37
2018-07-05T13:34:18.284Z,14.97
2018-07-05T13:35:28.386Z,15.06
2018-07-05T13:36:38.472Z,13.98
2018-07-05T13:37:47.536Z,15.08
2018-07-05T13:38:57.097Z,15.37
2018-07-05T13:40:06.936Z,15.08
2018-07-05T13:41:17.050Z,15.48
2018-07-05T13:42:26.859Z,15.19
2018-07-05T13:43:36.717Z,15.09
2018-07-05T13:44:46.800Z,15
2018-07-05T13:45:56.607Z,14.31
2018-07-05T13:47:06.542Z,14.22
2018-07-05T13:48:16.540Z,13.13
2018-07-05T13:49:25.879Z,13.92
2018-07-05T13:50:35.980Z,13.22
2018-07-05T13:51:45.528Z,13.42
2018-07-05T13:52:55.642Z,13.9
2018-07-05T13:54:05.091Z,13.51
2018-07-05T13:55:14.720Z,14.11
2018-07-05T13:56:24.810Z,14.22
2018-07-05T13:57:34.911Z,13.82
2018-07-05T13:58:44.747Z,13.62
2018-07-05T13:59:54.842Z,13.02
2018-07-05T14:01:04.706Z,12.84
2018-07-05T14:02:14.526Z,13.53
2018-07-05T14:03:24.626Z,13.43
2018-07-05T14:04:34.842Z,13.34
2018-07-05T14:05:44.930Z,13.64
2018-07-05T14:06:55.069Z,13.24
2018-07-05T14:08:04.900Z,13.74
2018-07-05T14:09:14.449Z,13.54
2018-07-05T14:10:24.546Z,12.85
2018-07-05T14:11:34.376Z,13.34
2018-07-05T14:12:44.535Z,13.74
2018-07-05T14:13:54.354Z,12.95
2018-07-05T14:15:04.431Z,12.55
2018-07-05T14:16:14.243Z,13.04
2018-07-05T14:17:24.324Z,13.23
2018-07-05T14:18:34.483Z,12.84
2018-07-05T14:19:44.590Z,13.62
2018-07-05T14:20:54.409Z,13.13
2018-07-05T14:22:04.234Z,13.23
2018-07-05T14:23:13.775Z,13.32
2018-07-05T14:24:23.647Z,12.73
2018-07-05T14:25:33.208Z,13.43
2018-07-05T14:26:43.029Z,13.53
2018-07-05T14:27:53.100Z,13.53
2018-07-05T14:29:03.198Z,13.43
2018-07-05T14:30:13.078Z,13.02
2018-07-05T14:31:23.083Z,13.53
2018-07-05T14:32:33.770Z,13.53
2018-07-05T14:33:43.598Z,13.71
2018-07-05T14:34:53.713Z,13.43
2018-07-05T14:36:03.836Z,13.83
2018-07-05T14:37:13.932Z,13.44
2018-07-05T14:38:23.767Z,13.24
2018-07-05T14:39:33.853Z,13.52
2018-07-05T14:40:43.941Z,14.01
2018-07-05T14:41:54.096Z,13.62
2018-07-05T14:43:03.918Z,13.93
2018-07-05T14:44:14.033Z,14.02
2018-07-05T14:45:24.133Z,14.12
2018-07-05T14:46:33.964Z,14.31
2018-07-05T14:47:43.819Z,14.32
2018-07-05T14:48:53.631Z,14.01
2018-07-05T14:50:03.456Z,14.01
2018-07-05T14:51:13.269Z,14.51
2018-07-05T14:52:23.519Z,14.71
2018-07-05T14:53:33.759Z,14.41
2018-07-05T14:54:43.320Z,14.61
2018-07-05T14:55:53.437Z,15.09
2018-07-05T14:57:03.249Z,14.9
2018-07-05T14:58:12.803Z,14.31
2018-07-05T14:59:22.417Z,14.7
2018-07-05T15:00:32.232Z,15
2018-07-05T15:01:42.161Z,15.2
2018-07-05T15:02:52.343Z,15.49
2018-07-05T15:04:02.435Z,15.5
2018-07-05T15:05:12.465Z,15.99
2018-07-05T15:06:22.575Z,15.69
2018-07-05T15:07:32.123Z,15.6